UAL128 LFMN-EBCI
Flight info
| Callsign | UAL128 |
|---|---|
| Flight time | 1h 16m |
| Altitude | 36000 |
| Route | IRMAR DCT KINES DCT VANAS DCT MOBLO DCT UBIMA DCT GILIR DCT PENDU DCT IXILU DCT EPL DCT ROUSY M624 DIK Y37 BATTY |
| Aircraft | B737/M-SDE2E3FGHIRWXY/LB1 |
Departure
| Time | 2026-05-07 23:02 |
|---|---|
| Airport | Nice-Côte d'Azur Airport (LFMN) |
Arrival
| Time | 2026-05-08 00:18 |
|---|---|
| Airport | Brussels South Charleroi Airport (EBCI) |
| Time | Latitude | Longitude | Altitude | Speed | Heading |
|---|---|---|---|---|---|
| 2026-05-07 22:53 | 43.66106 | 7.20862 | 20 ft | 0 kts | 81° |
| 2026-05-07 22:55 | 43.66105 | 7.20861 | 20 ft | 1 kts | 81° |
| 2026-05-07 22:56 | 43.66102 | 7.20830 | 21 ft | 2 kts | 80° |
| 2026-05-07 22:56 | 43.66101 | 7.20803 | 20 ft | 4 kts | 134° |
| 2026-05-07 22:56 | 43.66123 | 7.20791 | 20 ft | 3 kts | 171° |
| 2026-05-07 22:56 | 43.66149 | 7.20784 | 20 ft | 4 kts | 171° |
| 2026-05-07 22:57 | 43.66157 | 7.20782 | 20 ft | 0 kts | 171° |
| 2026-05-07 22:58 | 43.66155 | 7.20783 | 20 ft | 4 kts | 171° |
| 2026-05-07 22:58 | 43.66093 | 7.20796 | 20 ft | 11 kts | 171° |
| 2026-05-07 22:59 | 43.66011 | 7.20816 | 20 ft | 13 kts | 170° |
| 2026-05-07 22:59 | 43.65914 | 7.20838 | 20 ft | 15 kts | 172° |
| 2026-05-07 22:59 | 43.65802 | 7.20862 | 20 ft | 17 kts | 174° |
| 2026-05-07 22:59 | 43.65695 | 7.20786 | 21 ft | 19 kts | 221° |
| 2026-05-07 23:00 | 43.65597 | 7.20656 | 20 ft | 20 kts | 225° |
| 2026-05-07 23:00 | 43.65493 | 7.20513 | 22 ft | 22 kts | 225° |
| 2026-05-07 23:00 | 43.65381 | 7.20359 | 21 ft | 23 kts | 225° |
| 2026-05-07 23:00 | 43.65251 | 7.20331 | 20 ft | 20 kts | 141° |
| 2026-05-07 23:01 | 43.65211 | 7.20406 | 20 ft | 7 kts | 102° |
| 2026-05-07 23:01 | 43.65229 | 7.20467 | 20 ft | 7 kts | 45° |
| 2026-05-07 23:01 | 43.65458 | 7.20784 | 20 ft | 95 kts | 45° |
| 2026-05-07 23:01 | 43.66140 | 7.21697 | 106 ft | 171 kts | 44° |
| 2026-05-07 23:02 | 43.67056 | 7.23027 | 749 ft | 204 kts | 46° |
| 2026-05-07 23:02 | 43.67839 | 7.24595 | 2017 ft | 197 kts | 73° |
| 2026-05-07 23:02 | 43.67728 | 7.26481 | 3018 ft | 209 kts | 116° |
| 2026-05-07 23:02 | 43.66752 | 7.28015 | 3757 ft | 220 kts | 134° |
| 2026-05-07 23:03 | 43.65718 | 7.29604 | 4611 ft | 225 kts | 131° |
| 2026-05-07 23:03 | 43.64684 | 7.31254 | 5525 ft | 229 kts | 131° |
| 2026-05-07 23:03 | 43.63878 | 7.33155 | 6527 ft | 233 kts | 105° |
| 2026-05-07 23:03 | 43.63836 | 7.35371 | 7634 ft | 234 kts | 78° |
| 2026-05-07 23:04 | 43.64327 | 7.37534 | 8609 ft | 240 kts | 70° |
| 2026-05-07 23:04 | 43.64941 | 7.39711 | 9558 ft | 245 kts | 69° |
| 2026-05-07 23:04 | 43.65562 | 7.41917 | 10555 ft | 247 kts | 70° |
| 2026-05-07 23:04 | 43.66174 | 7.44138 | 11523 ft | 250 kts | 70° |
| 2026-05-07 23:05 | 43.66788 | 7.46400 | 12456 ft | 253 kts | 70° |
| 2026-05-07 23:05 | 43.67405 | 7.48688 | 13373 ft | 256 kts | 69° |
| 2026-05-07 23:05 | 43.68407 | 7.50803 | 13913 ft | 278 kts | 42° |
| 2026-05-07 23:05 | 43.70205 | 7.52092 | 14138 ft | 309 kts | 11° |
| 2026-05-07 23:06 | 43.72431 | 7.52081 | 14375 ft | 336 kts | 346° |
| 2026-05-07 23:06 | 43.74645 | 7.50754 | 14592 ft | 362 kts | 325° |
| 2026-05-07 23:06 | 43.76451 | 7.48250 | 15066 ft | 375 kts | 302° |
| 2026-05-07 23:06 | 43.77426 | 7.44919 | 15869 ft | 378 kts | 277° |
| 2026-05-07 23:07 | 43.77405 | 7.41300 | 16811 ft | 377 kts | 263° |
| 2026-05-07 23:07 | 43.77141 | 7.37685 | 17671 ft | 380 kts | 264° |
| 2026-05-07 23:07 | 43.77008 | 7.34008 | 18450 ft | 385 kts | 267° |
| 2026-05-07 23:07 | 43.77025 | 7.30276 | 19224 ft | 390 kts | 274° |
| 2026-05-07 23:08 | 43.77748 | 7.26640 | 19964 ft | 398 kts | 294° |
| 2026-05-07 23:08 | 43.79282 | 7.23439 | 20749 ft | 404 kts | 310° |
| 2026-05-07 23:08 | 43.81459 | 7.20934 | 21478 ft | 410 kts | 322° |
| 2026-05-07 23:08 | 43.83808 | 7.18658 | 22136 ft | 415 kts | 323° |
| 2026-05-07 23:09 | 43.86209 | 7.16399 | 22731 ft | 419 kts | 323° |
| 2026-05-07 23:09 | 43.88628 | 7.14121 | 23339 ft | 422 kts | 323° |
| 2026-05-07 23:09 | 43.91059 | 7.11808 | 23960 ft | 425 kts | 322° |
| 2026-05-07 23:09 | 43.93503 | 7.09455 | 24515 ft | 429 kts | 322° |
| 2026-05-07 23:10 | 43.95955 | 7.07075 | 25111 ft | 431 kts | 322° |
| 2026-05-07 23:10 | 43.98413 | 7.04676 | 25685 ft | 433 kts | 321° |
| 2026-05-07 23:10 | 44.00888 | 7.02255 | 26207 ft | 436 kts | 321° |
| 2026-05-07 23:10 | 44.03370 | 6.99824 | 26740 ft | 437 kts | 320° |
| 2026-05-07 23:11 | 44.05863 | 6.97381 | 27261 ft | 439 kts | 320° |
| 2026-05-07 23:11 | 44.08368 | 6.94925 | 27703 ft | 442 kts | 320° |
| 2026-05-07 23:11 | 44.10887 | 6.92452 | 28134 ft | 445 kts | 320° |
| 2026-05-07 23:11 | 44.13477 | 6.90065 | 28547 ft | 453 kts | 327° |
| 2026-05-07 23:12 | 44.16479 | 6.88569 | 28958 ft | 468 kts | 344° |
| 2026-05-07 23:12 | 44.19727 | 6.87968 | 29414 ft | 472 kts | 348° |
| 2026-05-07 23:12 | 44.23012 | 6.87511 | 29721 ft | 477 kts | 349° |
| 2026-05-07 23:12 | 44.26332 | 6.87084 | 30022 ft | 480 kts | 349° |
| 2026-05-07 23:13 | 44.29661 | 6.86648 | 30432 ft | 480 kts | 349° |
| 2026-05-07 23:13 | 44.32977 | 6.86192 | 30942 ft | 478 kts | 348° |
| 2026-05-07 23:13 | 44.36280 | 6.85714 | 31348 ft | 478 kts | 348° |
| 2026-05-07 23:13 | 44.39593 | 6.85217 | 31718 ft | 479 kts | 348° |
| 2026-05-07 23:14 | 44.42915 | 6.84710 | 32030 ft | 480 kts | 348° |
| 2026-05-07 23:14 | 44.46229 | 6.84199 | 32399 ft | 479 kts | 348° |
| 2026-05-07 23:14 | 44.49541 | 6.83689 | 32790 ft | 479 kts | 347° |
| 2026-05-07 23:14 | 44.52855 | 6.83178 | 33140 ft | 480 kts | 347° |
| 2026-05-07 23:15 | 44.56169 | 6.82669 | 33528 ft | 479 kts | 348° |
| 2026-05-07 23:15 | 44.59480 | 6.82162 | 33916 ft | 479 kts | 347° |
| 2026-05-07 23:15 | 44.62796 | 6.81652 | 34237 ft | 479 kts | 347° |
| 2026-05-07 23:15 | 44.66067 | 6.81149 | 34536 ft | 480 kts | 348° |
| 2026-05-07 23:16 | 44.69382 | 6.80639 | 34888 ft | 479 kts | 348° |
| 2026-05-07 23:16 | 44.72689 | 6.80130 | 35314 ft | 476 kts | 348° |
| 2026-05-07 23:16 | 44.75972 | 6.79624 | 35698 ft | 474 kts | 348° |
| 2026-05-07 23:16 | 44.79247 | 6.79118 | 35999 ft | 474 kts | 348° |
| 2026-05-07 23:17 | 44.82557 | 6.78694 | 36003 ft | 481 kts | 351° |
| 2026-05-07 23:17 | 44.89253 | 6.78260 | 36021 ft | 481 kts | 353° |
| 2026-05-07 23:18 | 44.95882 | 6.77933 | 36013 ft | 473 kts | 352° |
| 2026-05-07 23:18 | 45.02451 | 6.77537 | 36024 ft | 473 kts | 352° |
| 2026-05-07 23:19 | 45.09025 | 6.77100 | 36022 ft | 473 kts | 352° |
| 2026-05-07 23:19 | 45.15598 | 6.76661 | 36019 ft | 474 kts | 352° |
| 2026-05-07 23:20 | 45.20080 | 6.76364 | 36016 ft | 474 kts | 352° |
| 2026-05-07 23:20 | 45.26614 | 6.75932 | 36025 ft | 473 kts | 352° |
| 2026-05-07 23:21 | 45.33180 | 6.75496 | 36028 ft | 471 kts | 352° |
| 2026-05-07 23:21 | 45.39720 | 6.75078 | 36043 ft | 470 kts | 352° |
| 2026-05-07 23:22 | 45.46258 | 6.74665 | 36023 ft | 471 kts | 352° |
| 2026-05-07 23:22 | 45.52807 | 6.74226 | 36044 ft | 471 kts | 352° |
| 2026-05-07 23:23 | 45.59350 | 6.73779 | 36042 ft | 469 kts | 352° |
| 2026-05-07 23:23 | 45.65869 | 6.73333 | 36046 ft | 469 kts | 352° |
| 2026-05-07 23:24 | 45.72347 | 6.72891 | 36038 ft | 470 kts | 352° |
| 2026-05-07 23:24 | 45.78878 | 6.72445 | 36050 ft | 470 kts | 352° |
| 2026-05-07 23:25 | 45.85411 | 6.71996 | 36025 ft | 470 kts | 352° |
| 2026-05-07 23:25 | 45.91941 | 6.71542 | 36037 ft | 469 kts | 352° |
| 2026-05-07 23:26 | 45.98462 | 6.71087 | 36037 ft | 469 kts | 352° |
| 2026-05-07 23:26 | 46.04979 | 6.70633 | 36040 ft | 468 kts | 353° |
| 2026-05-07 23:27 | 46.14621 | 6.69270 | 36033 ft | 458 kts | 339° |
| 2026-05-07 23:27 | 46.20634 | 6.66389 | 36038 ft | 454 kts | 336° |
| 2026-05-07 23:28 | 46.26589 | 6.63376 | 36056 ft | 453 kts | 336° |
| 2026-05-07 23:28 | 46.32563 | 6.60405 | 36034 ft | 454 kts | 336° |
| 2026-05-07 23:29 | 46.38544 | 6.57473 | 36048 ft | 453 kts | 336° |
| 2026-05-07 23:29 | 46.44514 | 6.54554 | 36055 ft | 453 kts | 336° |
| 2026-05-07 23:30 | 46.50481 | 6.51629 | 36052 ft | 452 kts | 336° |
| 2026-05-07 23:30 | 46.56440 | 6.48698 | 36053 ft | 452 kts | 336° |
| 2026-05-07 23:31 | 46.62401 | 6.45757 | 36057 ft | 453 kts | 336° |
| 2026-05-07 23:31 | 46.68369 | 6.42808 | 36057 ft | 453 kts | 336° |
| 2026-05-07 23:32 | 46.74345 | 6.39849 | 36061 ft | 454 kts | 336° |
| 2026-05-07 23:32 | 46.80329 | 6.36877 | 36060 ft | 455 kts | 336° |
| 2026-05-07 23:33 | 46.86319 | 6.33896 | 36054 ft | 455 kts | 336° |
| 2026-05-07 23:33 | 46.92276 | 6.30925 | 36042 ft | 455 kts | 336° |
| 2026-05-07 23:34 | 46.98266 | 6.27930 | 36042 ft | 454 kts | 336° |
| 2026-05-07 23:34 | 47.04244 | 6.24934 | 36037 ft | 454 kts | 336° |
| 2026-05-07 23:35 | 47.10043 | 6.21430 | 36049 ft | 449 kts | 329° |
| 2026-05-07 23:35 | 47.15617 | 6.17309 | 36049 ft | 448 kts | 329° |
| 2026-05-07 23:36 | 47.21190 | 6.13209 | 36054 ft | 448 kts | 329° |
| 2026-05-07 23:36 | 47.26790 | 6.09166 | 36038 ft | 448 kts | 329° |
| 2026-05-07 23:37 | 47.32433 | 6.05220 | 36038 ft | 451 kts | 335° |
| 2026-05-07 23:37 | 47.38611 | 6.03243 | 36036 ft | 462 kts | 353° |
| 2026-05-07 23:38 | 47.44009 | 6.03283 | 36043 ft | 464 kts | 357° |
| 2026-05-07 23:38 | 47.50466 | 6.03559 | 36044 ft | 464 kts | 357° |
| 2026-05-07 23:39 | 47.56881 | 6.03751 | 36047 ft | 464 kts | 356° |
| 2026-05-07 23:39 | 47.63336 | 6.03885 | 36038 ft | 464 kts | 356° |
| 2026-05-07 23:40 | 47.69781 | 6.04012 | 36044 ft | 463 kts | 356° |
| 2026-05-07 23:40 | 47.76228 | 6.04154 | 36042 ft | 463 kts | 357° |
| 2026-05-07 23:41 | 47.82668 | 6.04353 | 36052 ft | 463 kts | 357° |
| 2026-05-07 23:41 | 47.89110 | 6.04563 | 36055 ft | 463 kts | 357° |
| 2026-05-07 23:42 | 47.95543 | 6.04766 | 36055 ft | 463 kts | 357° |
| 2026-05-07 23:42 | 48.01981 | 6.04966 | 36059 ft | 463 kts | 357° |
| 2026-05-07 23:43 | 48.08425 | 6.05168 | 36066 ft | 463 kts | 357° |
| 2026-05-07 23:43 | 48.14867 | 6.05369 | 36066 ft | 463 kts | 357° |
| 2026-05-07 23:44 | 48.21307 | 6.05570 | 36073 ft | 463 kts | 357° |
| 2026-05-07 23:44 | 48.27745 | 6.05772 | 36076 ft | 463 kts | 357° |
| 2026-05-07 23:45 | 48.34191 | 6.05988 | 36073 ft | 464 kts | 358° |
| 2026-05-07 23:45 | 48.40640 | 6.06292 | 36076 ft | 464 kts | 358° |
| 2026-05-07 23:46 | 48.47091 | 6.06615 | 36072 ft | 464 kts | 358° |
| 2026-05-07 23:46 | 48.53548 | 6.06931 | 36074 ft | 464 kts | 358° |
| 2026-05-07 23:47 | 48.59995 | 6.07242 | 36076 ft | 464 kts | 358° |
| 2026-05-07 23:47 | 48.66445 | 6.07549 | 36075 ft | 464 kts | 358° |
| 2026-05-07 23:48 | 48.72890 | 6.07857 | 36074 ft | 463 kts | 358° |
| 2026-05-07 23:48 | 48.79337 | 6.08167 | 36076 ft | 463 kts | 358° |
| 2026-05-07 23:49 | 48.85774 | 6.08476 | 36071 ft | 463 kts | 358° |
| 2026-05-07 23:49 | 48.92167 | 6.08786 | 36078 ft | 462 kts | 358° |
| 2026-05-07 23:50 | 48.98632 | 6.09100 | 36071 ft | 462 kts | 358° |
| 2026-05-07 23:50 | 49.05015 | 6.09410 | 36077 ft | 461 kts | 358° |
| 2026-05-07 23:51 | 49.11419 | 6.09722 | 36073 ft | 461 kts | 359° |
| 2026-05-07 23:51 | 49.15297 | 6.09912 | 36077 ft | 461 kts | 359° |
| 2026-05-07 23:52 | 49.21707 | 6.10226 | 36075 ft | 461 kts | 359° |
| 2026-05-07 23:52 | 49.28118 | 6.10540 | 36075 ft | 461 kts | 359° |
| 2026-05-07 23:53 | 49.34535 | 6.10855 | 36075 ft | 461 kts | 359° |
| 2026-05-07 23:53 | 49.40951 | 6.11171 | 36073 ft | 462 kts | 359° |
| 2026-05-07 23:54 | 49.47374 | 6.11488 | 35883 ft | 465 kts | 359° |
| 2026-05-07 23:54 | 49.50634 | 6.11633 | 35050 ft | 468 kts | 359° |
| 2026-05-07 23:54 | 49.53891 | 6.11759 | 34194 ft | 467 kts | 359° |
| 2026-05-07 23:55 | 49.57132 | 6.11880 | 33391 ft | 465 kts | 359° |
| 2026-05-07 23:55 | 49.60320 | 6.12001 | 33194 ft | 450 kts | 359° |
| 2026-05-07 23:55 | 49.63416 | 6.12121 | 32928 ft | 445 kts | 359° |
| 2026-05-07 23:55 | 49.66549 | 6.12238 | 32697 ft | 454 kts | 359° |
| 2026-05-07 23:56 | 49.69728 | 6.12357 | 31797 ft | 462 kts | 359° |
| 2026-05-07 23:56 | 49.72946 | 6.12481 | 30833 ft | 463 kts | 359° |
| 2026-05-07 23:56 | 49.76169 | 6.12609 | 29775 ft | 464 kts | 359° |
| 2026-05-07 23:56 | 49.79397 | 6.12736 | 28733 ft | 464 kts | 359° |
| 2026-05-07 23:57 | 49.82603 | 6.12864 | 27939 ft | 458 kts | 359° |
| 2026-05-07 23:57 | 49.85786 | 6.12861 | 27447 ft | 458 kts | 354° |
| 2026-05-07 23:57 | 49.88936 | 6.12254 | 26681 ft | 456 kts | 346° |
| 2026-05-07 23:57 | 49.91998 | 6.11188 | 26140 ft | 447 kts | 344° |
| 2026-05-07 23:58 | 49.95004 | 6.10065 | 25659 ft | 443 kts | 344° |
| 2026-05-07 23:58 | 49.97993 | 6.08935 | 25180 ft | 443 kts | 344° |
| 2026-05-07 23:58 | 50.00983 | 6.07822 | 24703 ft | 442 kts | 345° |
| 2026-05-07 23:58 | 50.03979 | 6.06728 | 24226 ft | 440 kts | 345° |
| 2026-05-07 23:59 | 50.06953 | 6.05658 | 23758 ft | 439 kts | 345° |
| 2026-05-07 23:59 | 50.09923 | 6.04601 | 23286 ft | 436 kts | 345° |
| 2026-05-07 23:59 | 50.12870 | 6.03557 | 22822 ft | 433 kts | 345° |
| 2026-05-07 23:59 | 50.15799 | 6.02521 | 22357 ft | 429 kts | 345° |
| 2026-05-08 00:00 | 50.18696 | 6.01495 | 21902 ft | 425 kts | 345° |
| 2026-05-08 00:00 | 50.21567 | 6.00475 | 21447 ft | 422 kts | 345° |
| 2026-05-08 00:00 | 50.24418 | 5.99460 | 21003 ft | 418 kts | 345° |
| 2026-05-08 00:00 | 50.27240 | 5.98453 | 20557 ft | 414 kts | 345° |
| 2026-05-08 00:01 | 50.30037 | 5.97454 | 20118 ft | 411 kts | 345° |
| 2026-05-08 00:01 | 50.32813 | 5.96461 | 19681 ft | 408 kts | 345° |
| 2026-05-08 00:01 | 50.35564 | 5.95477 | 19250 ft | 405 kts | 345° |
| 2026-05-08 00:01 | 50.38306 | 5.94494 | 18811 ft | 402 kts | 345° |
| 2026-05-08 00:02 | 50.41026 | 5.93518 | 18381 ft | 400 kts | 345° |
| 2026-05-08 00:02 | 50.43726 | 5.92548 | 17953 ft | 397 kts | 346° |
| 2026-05-08 00:02 | 50.46409 | 5.91582 | 17520 ft | 395 kts | 346° |
| 2026-05-08 00:02 | 50.49085 | 5.90618 | 17091 ft | 393 kts | 346° |
| 2026-05-08 00:03 | 50.51740 | 5.89662 | 16674 ft | 391 kts | 346° |
| 2026-05-08 00:03 | 50.54378 | 5.88710 | 16251 ft | 389 kts | 346° |
| 2026-05-08 00:03 | 50.57009 | 5.87759 | 15833 ft | 387 kts | 346° |
| 2026-05-08 00:03 | 50.59621 | 5.86784 | 15419 ft | 384 kts | 342° |
| 2026-05-08 00:04 | 50.61993 | 5.84921 | 14995 ft | 380 kts | 321° |
| 2026-05-08 00:04 | 50.63774 | 5.81918 | 14602 ft | 375 kts | 302° |
| 2026-05-08 00:04 | 50.64871 | 5.78243 | 14217 ft | 371 kts | 285° |
| 2026-05-08 00:04 | 50.65245 | 5.74256 | 13836 ft | 367 kts | 272° |
| 2026-05-08 00:05 | 50.65346 | 5.70236 | 13438 ft | 366 kts | 271° |
| 2026-05-08 00:05 | 50.65399 | 5.66242 | 13041 ft | 364 kts | 270° |
| 2026-05-08 00:05 | 50.65446 | 5.62254 | 12649 ft | 363 kts | 270° |
| 2026-05-08 00:05 | 50.65501 | 5.58292 | 12271 ft | 361 kts | 271° |
| 2026-05-08 00:06 | 50.65566 | 5.54345 | 11884 ft | 360 kts | 271° |
| 2026-05-08 00:06 | 50.65636 | 5.50414 | 11498 ft | 357 kts | 271° |
| 2026-05-08 00:06 | 50.65709 | 5.46566 | 11111 ft | 345 kts | 271° |
| 2026-05-08 00:06 | 50.65781 | 5.42854 | 10745 ft | 333 kts | 271° |
| 2026-05-08 00:07 | 50.65849 | 5.39270 | 10395 ft | 323 kts | 271° |
| 2026-05-08 00:07 | 50.65915 | 5.35786 | 10057 ft | 313 kts | 271° |
| 2026-05-08 00:07 | 50.65976 | 5.32466 | 10038 ft | 294 kts | 271° |
| 2026-05-08 00:07 | 50.66033 | 5.29369 | 10004 ft | 278 kts | 271° |
| 2026-05-08 00:08 | 50.66088 | 5.26315 | 9716 ft | 273 kts | 271° |
| 2026-05-08 00:08 | 50.66140 | 5.23367 | 9310 ft | 273 kts | 271° |
| 2026-05-08 00:08 | 50.66193 | 5.20377 | 8951 ft | 272 kts | 271° |
| 2026-05-08 00:08 | 50.66243 | 5.17406 | 8657 ft | 271 kts | 271° |
| 2026-05-08 00:09 | 50.66040 | 5.14469 | 8341 ft | 272 kts | 250° |
| 2026-05-08 00:09 | 50.65295 | 5.11737 | 8076 ft | 271 kts | 245° |
| 2026-05-08 00:09 | 50.64504 | 5.09044 | 7776 ft | 272 kts | 244° |
| 2026-05-08 00:09 | 50.63706 | 5.06345 | 7491 ft | 272 kts | 244° |
| 2026-05-08 00:10 | 50.62910 | 5.03643 | 7200 ft | 271 kts | 245° |
| 2026-05-08 00:10 | 50.62123 | 5.00957 | 6754 ft | 268 kts | 245° |
| 2026-05-08 00:10 | 50.61352 | 4.98320 | 6303 ft | 263 kts | 245° |
| 2026-05-08 00:10 | 50.60593 | 4.95715 | 5889 ft | 262 kts | 245° |
| 2026-05-08 00:11 | 50.59882 | 4.93079 | 5487 ft | 262 kts | 246° |
| 2026-05-08 00:11 | 50.59157 | 4.90451 | 5087 ft | 261 kts | 245° |
| 2026-05-08 00:11 | 50.58410 | 4.87854 | 4686 ft | 257 kts | 245° |
| 2026-05-08 00:11 | 50.57673 | 4.85331 | 4278 ft | 251 kts | 245° |
| 2026-05-08 00:12 | 50.56951 | 4.82872 | 3890 ft | 244 kts | 245° |
| 2026-05-08 00:12 | 50.56253 | 4.80504 | 3502 ft | 233 kts | 245° |
| 2026-05-08 00:12 | 50.55587 | 4.78233 | 3113 ft | 223 kts | 245° |
| 2026-05-08 00:12 | 50.54967 | 4.76117 | 3013 ft | 206 kts | 244° |
| 2026-05-08 00:13 | 50.54381 | 4.74115 | 2990 ft | 193 kts | 245° |
| 2026-05-08 00:13 | 50.53830 | 4.72270 | 2985 ft | 181 kts | 243° |
| 2026-05-08 00:13 | 50.53306 | 4.70494 | 3003 ft | 178 kts | 245° |
| 2026-05-08 00:13 | 50.52794 | 4.68708 | 3029 ft | 181 kts | 245° |
| 2026-05-08 00:14 | 50.52272 | 4.66905 | 3018 ft | 180 kts | 245° |
| 2026-05-08 00:14 | 50.51765 | 4.65162 | 2992 ft | 170 kts | 244° |
| 2026-05-08 00:14 | 50.51279 | 4.63495 | 2872 ft | 168 kts | 244° |
| 2026-05-08 00:14 | 50.50803 | 4.61862 | 2668 ft | 162 kts | 245° |
| 2026-05-08 00:15 | 50.50341 | 4.60277 | 2436 ft | 153 kts | 245° |
| 2026-05-08 00:15 | 50.49908 | 4.58789 | 2277 ft | 145 kts | 245° |
| 2026-05-08 00:15 | 50.49500 | 4.57389 | 2051 ft | 136 kts | 245° |
| 2026-05-08 00:15 | 50.49115 | 4.56066 | 1899 ft | 133 kts | 246° |
| 2026-05-08 00:16 | 50.48734 | 4.54755 | 1705 ft | 130 kts | 245° |
| 2026-05-08 00:16 | 50.48366 | 4.53490 | 1536 ft | 128 kts | 245° |
| 2026-05-08 00:16 | 50.48274 | 4.53172 | 1497 ft | 128 kts | 246° |
| 2026-05-08 00:16 | 50.47917 | 4.51945 | 1337 ft | 129 kts | 246° |
| 2026-05-08 00:17 | 50.47546 | 4.50667 | 1162 ft | 128 kts | 246° |
| 2026-05-08 00:17 | 50.47384 | 4.50108 | 1087 ft | 128 kts | 246° |
| 2026-05-08 00:17 | 50.47075 | 4.49044 | 947 ft | 127 kts | 246° |
| 2026-05-08 00:17 | 50.46705 | 4.47775 | 756 ft | 129 kts | 245° |
| 2026-05-08 00:18 | 50.46340 | 4.46521 | 592 ft | 118 kts | 245° |
| 2026-05-08 00:18 | 50.46066 | 4.45567 | 592 ft | 66 kts | 246° |
| 2026-05-08 00:18 | 50.45942 | 4.45136 | 591 ft | 33 kts | 245° |
| 2026-05-08 00:18 | 50.45889 | 4.44872 | 595 ft | 24 kts | 290° |
| 2026-05-08 00:19 | 50.46022 | 4.44823 | 595 ft | 23 kts | 44° |
| 2026-05-08 00:19 | 50.46095 | 4.45039 | 594 ft | 22 kts | 65° |
| 2026-05-08 00:19 | 50.46159 | 4.45255 | 598 ft | 22 kts | 64° |
| 2026-05-08 00:19 | 50.46223 | 4.45463 | 598 ft | 21 kts | 68° |
| 2026-05-08 00:20 | 50.46280 | 4.45669 | 597 ft | 20 kts | 68° |
| 2026-05-08 00:20 | 50.46337 | 4.45867 | 596 ft | 20 kts | 64° |
| 2026-05-08 00:20 | 50.46390 | 4.46061 | 591 ft | 19 kts | 65° |
| 2026-05-08 00:20 | 50.46445 | 4.46246 | 589 ft | 18 kts | 65° |
| 2026-05-08 00:21 | 50.46497 | 4.46425 | 587 ft | 18 kts | 65° |
| 2026-05-08 00:21 | 50.46548 | 4.46599 | 589 ft | 17 kts | 65° |
| 2026-05-08 00:21 | 50.46597 | 4.46765 | 590 ft | 16 kts | 55° |
| 2026-05-08 00:21 | 50.46693 | 4.46849 | 587 ft | 16 kts | 60° |
| 2026-05-08 00:22 | 50.46729 | 4.46963 | 586 ft | 9 kts | 65° |
| 2026-05-08 00:22 | 50.46757 | 4.47031 | 585 ft | 6 kts | 18° |
| 2026-05-08 00:22 | 50.46798 | 4.47016 | 582 ft | 0 kts | 339° |
| 2026-05-08 00:22 | 50.46773 | 4.47031 | 584 ft | 0 kts | 339° |
| 2026-05-08 00:23 | 50.46774 | 4.47030 | 584 ft | 0 kts | 339° |
| 2026-05-08 00:23 | 50.46796 | 4.47017 | 582 ft | 8 kts | 336° |
| 2026-05-08 00:23 | 50.46828 | 4.46994 | 584 ft | 0 kts | 335° |
| 2026-05-08 00:24 | 50.46841 | 4.46984 | 584 ft | 0 kts | 335° |